Time;durP1;ratioP1;P1;durP2;ratioP2;P2;SDS_P1;SDS_P2;PMS_P1;PMS_P2;Temp;Humidity;BMP_temperature;BMP_pressure;BME280_temperature;BME280_humidity;BME280_pressure;Samples;Min_cycle;Max_cycle;Signal;HPM_P1;HPM_P2
2021/01/31 00:01:03;;;;;;;24.40;13.20;;;3.60;83.90;;;3.89;70.01;95847.72;4964438;29;20047;-35
2021/01/31 00:03:31;;;;;;;21.73;12.03;;;3.70;83.70;;;3.86;70.02;95835.72;4964363;29;20051;-35
2021/01/31 00:06:03;;;;;;;20.87;12.73;;;3.70;83.40;;;3.86;69.57;95846.25;4964023;29;20065;-35
2021/01/31 00:08:31;;;;;;;21.50;11.73;;;3.60;83.10;;;3.85;70.09;95841.97;4964354;29;20057;-35
2021/01/31 00:11:00;;;;;;;14.37;9.27;;;3.70;83.50;;;3.82;69.54;95838.81;4964364;29;20054;-35
2021/01/31 00:13:29;;;;;;;14.57;8.87;;;3.70;83.20;;;3.86;69.89;95835.72;4947337;29;20050;-35
2021/01/31 00:15:57;;;;;;;12.03;9.00;;;3.70;83.50;;;3.83;69.73;95845.75;4963853;29;20053;-35
2021/01/31 00:18:29;;;;;;;12.20;8.10;;;3.70;83.10;;;3.81;70.13;95839.81;4964180;29;20059;-35
2021/01/31 00:20:58;;;;;;;12.30;8.33;;;3.70;83.00;;;3.86;70.10;95848.06;4963990;28;20047;-35
2021/01/31 00:23:26;;;;;;;12.90;8.27;;;3.70;83.00;;;3.87;69.64;95849.69;4963943;29;20059;-36
2021/01/31 00:25:58;;;;;;;13.37;8.63;;;3.60;83.00;;;3.85;69.79;95852.50;4963835;29;20069;-36
2021/01/31 00:28:26;;;;;;;12.00;8.00;;;3.70;83.30;;;3.90;70.23;95855.47;4964130;29;20050;-36
2021/01/31 00:30:54;;;;;;;14.30;9.77;;;3.70;83.70;;;3.92;69.80;95863.22;4963892;29;20355;-36
2021/01/31 00:33:25;;;;;;;12.57;8.40;;;3.70;83.20;;;3.80;69.94;95849.53;4963524;29;20057;-36
2021/01/31 00:35:56;;;;;;;15.50;9.83;;;3.70;83.00;;;3.84;69.96;95850.84;4962679;29;20055;-36
2021/01/31 00:38:25;;;;;;;12.77;9.17;;;3.70;83.30;;;3.90;69.93;95852.81;4964231;28;20051;-36
2021/01/31 00:40:53;;;;;;;11.57;7.63;;;3.70;83.50;;;3.91;69.76;95856.28;4963992;29;20055;-36
2021/01/31 00:43:21;;;;;;;12.27;8.00;;;3.60;83.20;;;3.90;69.42;95863.34;4963848;29;20055;-36
2021/01/31 00:45:49;;;;;;;11.10;7.70;;;3.60;83.30;;;3.91;69.82;95856.28;4963612;29;20055;-36
2021/01/31 00:48:17;;;;;;;13.03;8.47;;;3.70;83.70;;;3.97;69.84;95855.63;4963883;29;20047;-35
2021/01/31 00:50:45;;;;;;;10.73;7.97;;;3.70;83.50;;;3.94;69.54;95854.16;4962639;29;20069;-35
2021/01/31 00:53:18;;;;;;;11.13;7.67;;;3.60;83.10;;;3.88;69.71;95859.25;4963412;29;20078;-35
2021/01/31 00:55:50;;;;;;;13.13;8.47;;;3.70;83.10;;;3.89;69.58;95861.69;4945803;29;20414;-35
2021/01/31 00:58:26;;;;;;;12.17;7.33;;;3.70;83.50;;;3.92;69.67;95857.94;4946318;29;20353;-35
2021/01/31 01:00:55;;;;;;;10.27;6.97;;;3.70;83.10;;;3.93;69.81;95860.38;4949160;29;20109;-35
2021/01/31 01:03:23;;;;;;;9.13;6.47;;;3.80;83.30;;;3.88;70.17;95864.53;4946364;29;20055;-36
2021/01/31 01:05:59;;;;;;;12.70;7.23;;;3.80;82.30;;;3.83;70.12;95853.66;4945761;29;20055;-36
2021/01/31 01:08:27;;;;;;;10.13;6.63;;;3.70;82.80;;;3.82;70.20;95854.63;4964009;28;20066;-36
2021/01/31 01:10:54;;;;;;;13.47;7.60;;;3.70;83.00;;;3.85;70.00;95854.31;4963958;28;20055;-35
2021/01/31 01:13:22;;;;;;;10.80;7.23;;;3.70;83.20;;;3.84;70.07;95856.13;4962423;29;20053;-35
2021/01/31 01:15:49;;;;;;;11.50;6.83;;;3.70;83.00;;;3.85;69.98;95865.66;4962481;29;20058;-35
2021/01/31 01:18:17;;;;;;;14.63;9.13;;;3.70;83.10;;;3.87;69.97;95871.56;4963513;29;20051;-35
2021/01/31 01:20:45;;;;;;;16.87;9.93;;;3.70;82.90;;;3.90;69.79;95873.91;4963542;29;20049;-35
2021/01/31 01:23:12;;;;;;;13.77;8.80;;;3.70;83.20;;;3.96;69.82;95876.88;4962518;29;20055;-35
2021/01/31 01:25:39;;;;;;;12.30;8.50;;;3.60;83.60;;;4.00;69.97;95880.81;4963087;29;20058;-35
2021/01/31 01:28:07;;;;;;;13.37;8.80;;;3.70;83.70;;;3.94;69.65;95875.22;4963752;29;20054;-35
2021/01/31 01:30:34;;;;;;;13.63;9.03;;;3.70;83.10;;;3.95;69.93;95873.38;4963405;29;20379;-35
2021/01/31 01:33:03;;;;;;;14.30;8.73;;;3.80;83.10;;;3.98;70.11;95869.63;4963458;28;20047;-35
2021/01/31 01:35:31;;;;;;;13.73;8.90;;;3.70;82.80;;;3.94;69.97;95874.41;4966352;28;20047;-35
2021/01/31 01:37:58;;;;;;;13.43;9.77;;;3.80;82.80;;;3.92;70.07;95871.91;4967072;29;20059;-35
2021/01/31 01:40:36;;;;;;;13.50;8.70;;;3.80;83.10;;;3.98;69.78;95882.78;4966994;29;20237;-35
2021/01/31 01:43:05;;;;;;;16.50;9.37;;;3.80;83.20;;;4.03;70.22;95877.84;4967358;28;20061;-35
2021/01/31 01:45:33;;;;;;;12.90;8.00;;;3.80;83.10;;;3.98;70.04;95880.16;4966939;29;20051;-35
2021/01/31 01:48:27;;;;;;;16.07;9.33;;;3.60;82.90;;;3.92;69.67;95892.97;4964162;29;20063;-35
2021/01/31 01:50:54;;;;;;;15.43;10.23;;;3.60;83.40;;;3.90;69.78;95884.44;4965240;29;20062;-35
2021/01/31 01:53:25;;;;;;;14.87;10.20;;;3.60;83.50;;;3.90;70.19;95884.44;4965704;29;20043;-35
2021/01/31 01:56:13;;;;;;;15.90;9.87;;;3.60;83.30;;;3.91;69.72;95879.97;4966194;29;20057;-36
2021/01/31 01:58:41;;;;;;;13.17;9.03;;;3.70;83.20;;;3.91;69.25;95882.59;4965344;29;20246;-35
2021/01/31 02:01:09;;;;;;;14.10;9.20;;;3.70;83.10;;;3.83;69.96;95886.06;4966523;29;20047;-36
2021/01/31 02:03:42;;;;;;;16.60;9.90;;;3.60;83.10;;;3.86;69.67;95885.75;4966404;29;20252;-36
2021/01/31 02:06:19;;;;;;;18.87;11.50;;;3.70;82.90;;;3.86;69.82;95885.75;4965122;29;20055;-36
2021/01/31 02:08:48;;;;;;;14.40;8.97;;;3.60;83.00;;;3.84;69.57;95884.22;4965435;29;20055;-36
2021/01/31 02:11:17;;;;;;;12.97;9.40;;;3.70;83.00;;;3.85;69.85;95893.78;4966515;29;20051;-36
2021/01/31 02:13:52;;;;;;;14.90;9.23;;;3.70;83.00;;;3.90;70.16;95894.97;4966334;29;20051;-36
2021/01/31 02:16:51;;;;;;;15.67;9.97;;;3.70;82.90;;;3.88;69.58;95886.41;4964937;29;20058;-36
2021/01/31 02:19:44;;;;;;;14.50;9.03;;;3.60;82.90;;;3.87;69.87;95902.34;4966593;28;20069;-36
2021/01/31 02:22:43;;;;;;;12.60;8.47;;;3.60;83.10;;;3.85;69.26;95905.13;4966145;29;20256;-34
2021/01/31 02:25:46;;;;;;;16.67;9.03;;;3.50;83.40;;;3.71;69.26;95918.94;4965721;29;20051;-34
2021/01/31 02:28:27;;;;;;;12.97;8.57;;;3.20;83.80;;;3.66;69.46;95922.03;4962408;29;20127;-35
2021/01/31 02:31:06;;;;;;;16.20;9.20;;;3.20;84.10;;;3.59;69.38;95918.41;4965032;29;20051;-35
2021/01/31 02:33:41;;;;;;;15.17;9.40;;;3.10;84.50;;;3.58;69.68;95914.13;4965864;29;20054;-35
2021/01/31 02:36:52;;;;;;;16.87;9.93;;;3.10;84.80;;;3.55;69.55;95917.09;4965761;29;20047;-35
2021/01/31 02:39:40;;;;;;;17.47;10.37;;;3.00;84.70;;;3.52;69.90;95920.84;4965118;29;20367;-35
2021/01/31 02:42:35;;;;;;;15.23;9.67;;;3.10;84.80;;;3.50;69.84;95922.81;4965779;28;20051;-35
2021/01/31 02:45:02;;;;;;;16.15;9.50;;;3.10;84.10;;;3.45;69.53;95924.25;4964833;28;20055;-35
2021/01/31 02:47:33;;;;;;;15.83;9.47;;;3.00;84.30;;;3.41;69.54;95922.94;4965327;29;20051;-36
2021/01/31 02:50:25;;;;;;;15.07;9.40;;;2.90;84.80;;;3.39;69.87;95928.34;4964604;29;20051;-35
2021/01/31 02:53:05;;;;;;;17.80;9.90;;;3.00;85.00;;;3.36;70.15;95926.06;4964651;29;20039;-35
2021/01/31 02:55:56;;;;;;;13.43;8.60;;;3.00;84.60;;;3.39;70.02;95932.78;4964198;29;20385;-35
2021/01/31 02:58:36;;;;;;;14.13;10.03;;;3.10;84.30;;;3.36;69.76;95933.94;4964458;29;20047;-35
2021/01/31 03:01:56;;;;;;;15.13;9.70;;;3.10;84.00;;;3.41;70.03;95933.47;4964592;29;20387;-35
2021/01/31 03:04:53;;;;;;;14.83;8.37;;;3.20;84.20;;;3.47;70.01;95935.47;4956189;29;20081;-35
2021/01/31 03:07:26;;;;;;;15.83;9.63;;;3.10;83.80;;;3.40;69.65;95937.09;4964465;29;20051;-35
2021/01/31 03:10:03;;;;;;;15.45;9.85;;;3.00;83.10;;;3.40;69.38;95934.47;4964542;29;20255;-35
2021/01/31 03:12:57;;;;;;;15.43;10.07;;;3.10;83.60;;;3.43;69.86;95923.59;4964385;28;20043;-35
2021/01/31 03:15:28;;;;;;;;;;;3.10;83.80;;;3.46;69.42;95924.13;4965290;29;20061;-35
2021/01/31 03:18:09;;;;;;;17.70;9.73;;;3.10;83.80;;;3.52;69.79;95925.28;4948678;29;19919;-35
2021/01/31 03:20:42;;;;;;;15.30;9.40;;;3.10;83.70;;;3.54;69.86;95916.25;4964485;28;20353;-35
2021/01/31 03:23:49;;;;;;;17.13;10.93;;;3.20;83.80;;;3.58;69.94;95916.75;4963736;29;20237;-35
2021/01/31 03:26:34;;;;;;;19.80;11.73;;;3.20;83.90;;;3.61;69.85;95919.06;4943395;29;20260;-36
2021/01/31 03:29:02;;;;;;;17.37;10.70;;;3.20;83.50;;;3.61;69.67;95908.56;4963724;29;20062;-35
2021/01/31 03:31:36;;;;;;;18.80;10.10;;;3.20;83.70;;;3.63;69.77;95905.75;4964782;29;20054;-35
2021/01/31 03:34:10;;;;;;;19.00;11.93;;;3.20;83.80;;;3.62;69.70;95906.72;4963762;29;20241;-35
2021/01/31 03:36:45;;;;;;;23.40;12.83;;;3.20;83.70;;;3.60;69.56;95911.34;4961698;29;20241;-35
2021/01/31 03:39:15;;;;;;;23.20;13.70;;;3.20;83.50;;;3.62;69.62;95914.63;4970593;28;20043;-35
2021/01/31 03:41:43;;;;;;;21.63;13.33;;;3.20;83.90;;;3.62;69.13;95914.63;4971052;28;20050;-35
2021/01/31 03:44:11;;;;;;;22.20;12.50;;;3.20;83.30;;;3.57;69.67;95923.00;4971112;28;20066;-35
2021/01/31 03:47:01;;;;;;;19.77;11.63;;;3.30;83.50;;;3.51;69.74;95919.22;4963554;29;20047;-35
2021/01/31 03:49:57;;;;;;;19.67;11.73;;;3.30;83.00;;;3.47;69.56;95931.03;4970857;28;20051;-35
2021/01/31 03:52:25;;;;;;;15.30;10.03;;;3.30;82.90;;;3.45;69.75;95942.69;4971254;28;20063;-35
2021/01/31 03:54:54;;;;;;;17.00;10.03;;;3.30;82.90;;;3.43;70.05;95942.88;4963613;29;20055;-35
2021/01/31 03:57:40;;;;;;;15.23;10.50;;;3.30;82.70;;;3.39;69.82;95956.47;4975922;28;20058;-35
2021/01/31 04:00:26;;;;;;;15.07;9.47;;;3.30;82.50;;;3.39;69.91;95959.09;4964628;29;20054;-35
2021/01/31 04:03:23;;;;;;;16.93;9.43;;;3.30;82.60;;;3.46;69.86;95966.22;4963385;29;20065;-35
2021/01/31 04:06:09;;;;;;;16.33;9.77;;;3.20;83.00;;;3.49;69.42;95976.44;4962908;29;20055;-35
2021/01/31 04:08:37;;;;;;;15.73;10.53;;;3.20;82.90;;;3.47;69.69;95969.66;4962777;29;20059;-35
2021/01/31 04:11:04;;;;;;;16.90;11.10;;;3.30;82.80;;;3.49;69.94;95971.16;4964156;29;20065;-35
2021/01/31 04:13:34;;;;;;;15.20;10.20;;;3.30;82.70;;;3.51;69.83;95971.84;4964201;29;20146;-36
2021/01/31 04:16:06;;;;;;;18.33;10.97;;;3.20;82.60;;;3.51;69.49;95969.19;4964205;28;20174;-35
2021/01/31 04:18:34;;;;;;;17.13;11.17;;;3.20;82.60;;;3.47;69.75;95975.78;4963894;29;20051;-35
2021/01/31 04:21:01;;;;;;;16.43;9.90;;;3.30;82.70;;;3.51;69.70;95971.03;4964048;29;20069;-35
2021/01/31 04:23:28;;;;;;;22.13;11.10;;;3.30;82.60;;;3.54;69.66;95971.50;4963034;29;20065;-35
2021/01/31 04:25:56;;;;;;;21.23;13.03;;;3.30;82.60;;;3.54;69.92;95968.06;4963541;29;20058;-35
2021/01/31 04:28:25;;;;;;;18.43;11.63;;;3.20;82.70;;;3.52;69.61;95968.19;4963599;28;20055;-35
2021/01/31 04:30:57;;;;;;;18.33;11.43;;;3.20;82.30;;;3.53;69.50;95964.59;4963877;29;20053;-35
2021/01/31 04:33:26;;;;;;;16.40;10.37;;;3.20;82.80;;;3.54;69.37;95968.88;4963919;29;20045;-35
2021/01/31 04:35:54;;;;;;;15.63;9.53;;;3.20;83.10;;;3.56;69.53;95966.09;4963496;29;20057;-35
2021/01/31 04:38:22;;;;;;;17.40;9.70;;;3.20;82.80;;;3.55;69.66;95967.91;4963087;29;20325;-35
2021/01/31 04:40:58;;;;;;;18.83;10.77;;;3.20;82.80;;;3.59;69.36;95964.94;4963909;29;20049;-35
2021/01/31 04:43:26;;;;;;;16.53;10.63;;;3.20;83.20;;;3.59;69.83;95957.88;4978706;28;20067;-35
2021/01/31 04:45:55;;;;;;;18.23;10.33;;;3.20;83.00;;;3.59;69.60;95957.03;4963437;29;20057;-35
2021/01/31 04:48:44;;;;;;;15.43;9.27;;;3.20;82.60;;;3.54;69.45;95960.97;4978013;28;20051;-35
2021/01/31 04:51:11;;;;;;;16.43;10.30;;;3.20;82.50;;;3.55;69.32;95954.75;4962829;29;20244;-35
2021/01/31 04:54:26;;;;;;;14.80;9.40;;;3.20;82.90;;;3.57;69.29;95959.84;4963760;29;20047;-35
2021/01/31 04:57:13;;;;;;;14.73;8.70;;;3.20;82.80;;;3.53;69.38;95951.44;4963357;29;20047;-35
2021/01/31 04:59:50;;;;;;;16.87;9.80;;;3.10;82.70;;;3.52;69.62;95954.22;4978410;28;20069;-39
2021/01/31 05:02:29;;;;;;;17.30;10.00;;;3.10;82.80;;;3.53;69.62;95945.38;4963790;29;20218;-39
2021/01/31 05:05:00;;;;;;;14.73;9.77;;;3.10;83.10;;;3.54;69.63;95947.81;4963318;29;20054;-39
2021/01/31 05:07:52;;;;;;;14.97;10.10;;;3.10;83.30;;;3.56;69.08;95937.13;4963927;28;20066;-39
2021/01/31 05:10:20;;;;;;;16.67;9.83;;;3.20;82.80;;;3.58;69.31;95948.31;4959188;28;20085;-39
2021/01/31 05:13:37;;;;;;;15.90;11.17;;;3.20;83.30;;;3.58;68.81;95948.31;4967659;29;20228;-35
2021/01/31 05:16:16;;;;;;;17.93;10.90;;;3.10;83.20;;;3.58;69.15;95945.69;4907343;29;20066;-35
2021/01/31 05:18:56;;;;;;;17.77;10.50;;;3.10;83.50;;;3.59;69.40;95946.50;4967023;29;20060;-35
2021/01/31 05:21:31;;;;;;;17.33;10.47;;;3.10;83.70;;;3.58;69.12;95939.63;4981347;28;20059;-35
2021/01/31 05:24:08;;;;;;;13.70;8.87;;;3.10;83.30;;;3.57;69.24;95946.69;4966230;29;20061;-35
2021/01/31 05:26:44;;;;;;;14.67;9.60;;;3.10;83.30;;;3.58;69.20;95940.44;4966023;28;20055;-35
2021/01/31 05:29:30;;;;;;;14.37;9.03;;;3.10;83.20;;;3.57;69.20;95941.44;4965689;29;20059;-35
2021/01/31 05:32:13;;;;;;;13.10;9.00;;;3.10;83.60;;;3.57;69.12;95954.59;4974889;23;20374;-39
2021/01/31 05:34:56;;;;;;;14.50;9.35;;;3.10;83.10;;;3.58;69.09;95971.19;4942028;29;20043;-39
2021/01/31 05:37:44;;;;;;;14.20;9.23;;;3.10;83.30;;;3.53;69.39;95956.72;4967049;29;20051;-39
2021/01/31 05:40:37;;;;;;;15.63;9.73;;;3.10;83.40;;;3.56;69.10;95973.97;4966894;29;20055;-39
2021/01/31 05:43:12;;;;;;;13.70;8.50;;;3.10;83.30;;;3.55;69.51;95973.16;4966955;29;20044;-39
2021/01/31 05:45:44;;;;;;;15.53;10.87;;;3.10;83.20;;;3.57;69.36;95975.66;4950561;29;20051;-39
2021/01/31 05:48:21;;;;;;;16.57;10.07;;;3.20;83.10;;;3.60;69.50;95971.88;4966332;29;20055;-39
2021/01/31 05:50:51;;;;;;;29.50;15.60;;;3.20;82.80;;;3.62;69.34;95972.53;4950346;29;20047;-39
2021/01/31 05:53:30;;;;;;;20.47;11.73;;;3.20;82.60;;;3.63;69.01;95972.38;4949989;29;20069;-39
2021/01/31 05:56:25;;;;;;;14.97;10.20;;;3.20;82.90;;;3.61;69.32;95974.34;4948996;29;20053;-39
2021/01/31 05:58:57;;;;;;;13.63;9.38;;;3.20;82.60;;;3.59;69.65;95981.56;4951440;29;20058;-40
2021/01/31 06:01:26;;;;;;;15.33;10.43;;;3.20;82.60;;;3.59;69.49;95978.94;4963985;29;20271;-39
2021/01/31 06:04:17;;;;;;;14.67;9.27;;;3.30;82.90;;;3.63;69.44;95982.09;4966667;29;20051;-39
2021/01/31 06:06:46;;;;;;;15.90;9.57;;;3.30;82.50;;;3.64;69.33;95992.44;4966260;29;20073;-39
2021/01/31 06:09:20;;;;;;;16.67;9.80;;;3.30;82.60;;;3.65;69.19;95985.38;4949873;29;20050;-39
2021/01/31 06:11:48;;;;;;;16.33;10.85;;;3.30;82.60;;;3.66;69.28;96000.16;4949954;29;20252;-39
2021/01/31 06:14:15;;;;;;;15.97;10.00;;;3.20;82.20;;;3.63;69.91;96001.31;4949621;29;20123;-39
2021/01/31 06:16:44;;;;;;;18.40;10.03;;;3.20;82.60;;;3.57;69.01;96001.97;4966012;29;20057;-39
2021/01/31 06:19:36;;;;;;;18.00;9.53;;;3.20;82.60;;;3.57;69.22;96001.97;4948819;29;20051;-39
2021/01/31 06:22:06;;;;;;;15.47;10.50;;;3.30;82.70;;;3.60;69.42;96003.44;4949676;29;20047;-40
2021/01/31 06:24:33;;;;;;;16.03;10.43;;;3.20;82.40;;;3.61;69.28;96002.47;4949318;29;20051;-39
2021/01/31 06:27:03;;;;;;;15.70;10.27;;;3.20;82.30;;;3.64;69.39;96002.13;4965880;29;20055;-40
2021/01/31 06:29:57;;;;;;;15.23;9.73;;;3.20;82.40;;;3.62;69.05;96006.72;4948567;29;20055;-39
2021/01/31 06:32:31;;;;;;;15.07;10.00;;;3.20;81.90;;;3.55;68.96;96007.38;4950113;29;20061;-39
2021/01/31 06:35:12;;;;;;;13.05;9.27;;;3.20;82.20;;;3.56;69.34;96002.94;4948404;29;20051;-39
2021/01/31 06:38:00;;;;;;;13.83;8.83;;;3.20;82.20;;;3.54;69.34;96008.34;4949893;29;20129;-39
2021/01/31 06:41:02;;;;;;;15.70;10.03;;;3.20;82.30;;;3.54;69.26;96010.16;4966106;29;20055;-39
2021/01/31 06:43:33;;;;;;;17.50;9.80;;;3.20;82.30;;;3.50;68.72;96020.16;4966020;29;20043;-39
2021/01/31 06:46:18;;;;;;;15.00;10.80;;;3.20;81.90;;;3.47;69.44;96022.28;4965194;29;20051;-39
2021/01/31 06:48:57;;;;;;;15.93;12.13;;;3.20;81.70;;;3.47;69.01;96019.66;4948658;29;20151;-39
2021/01/31 06:52:06;;;;;;;15.50;10.07;;;3.10;82.00;;;3.43;68.73;96016.53;4965662;29;20051;-39
2021/01/31 06:55:20;;;;;;;14.53;9.43;;;3.10;81.50;;;3.38;69.09;96034.59;4948160;29;20286;-39
2021/01/31 06:58:20;;;;;;;13.37;8.33;;;3.10;81.40;;;3.32;69.38;96051.00;4937499;29;20055;-36
2021/01/31 07:01:05;;;;;;;16.60;9.73;;;3.10;81.70;;;3.36;69.11;96054.97;4964867;29;20053;-36
2021/01/31 07:03:46;;;;;;;17.37;10.57;;;3.00;81.50;;;3.30;68.93;96045.88;4965681;29;20051;-36
2021/01/31 07:06:50;;;;;;;14.30;9.33;;;3.10;81.60;;;3.29;68.93;96046.84;4965024;29;20341;-36
2021/01/31 07:09:55;;;;;;;15.18;9.65;;;3.10;81.70;;;3.33;69.19;96044.72;4965095;29;20051;-36
2021/01/31 07:12:38;;;;;;;17.23;11.60;;;3.10;81.80;;;3.38;69.20;96057.44;4963878;29;20062;-36
2021/01/31 07:15:17;;;;;;;15.23;9.90;;;3.10;81.90;;;3.39;69.05;96065.16;4949310;29;20043;-36
2021/01/31 07:18:04;;;;;;;15.63;8.87;;;3.10;81.90;;;3.42;69.09;96058.78;4965240;29;20344;-36
2021/01/31 07:20:45;;;;;;;14.73;9.17;;;3.10;81.30;;;3.42;69.29;96074.56;4948855;29;20051;-36
2021/01/31 07:23:35;;;;;;;13.53;8.30;;;3.10;81.70;;;3.42;69.09;96080.63;4965655;29;20320;-36
2021/01/31 07:26:15;;;;;;;16.10;9.57;;;3.10;81.40;;;3.39;68.81;96077.50;4964051;29;20055;-36
2021/01/31 07:28:44;;;;;;;16.07;10.37;;;3.10;81.50;;;3.38;69.27;96075.84;4965205;29;20051;-36
2021/01/31 07:31:17;;;;;;;18.53;11.07;;;3.10;81.70;;;3.41;69.30;96076.34;4964014;28;20264;-35
2021/01/31 07:34:12;;;;;;;17.85;10.50;;;3.10;81.60;;;3.43;68.86;96074.41;4964421;29;20059;-35
2021/01/31 07:37:06;;;;;;;17.17;10.10;;;3.10;81.40;;;3.44;68.83;96075.22;4964562;29;20049;-35
2021/01/31 07:39:49;;;;;;;15.43;10.03;;;3.10;81.20;;;3.47;68.80;96080.16;4948701;29;20043;-35
2021/01/31 07:42:18;;;;;;;14.97;8.93;;;3.00;81.40;;;3.45;68.99;96072.44;4949038;29;20043;-36
2021/01/31 07:44:47;;;;;;;13.93;9.93;;;3.10;81.60;;;3.46;69.04;96068.00;4963744;29;20065;-36
2021/01/31 07:47:21;;;;;;;13.63;9.63;;;3.10;81.80;;;3.46;68.78;96068.81;4946618;29;20050;-36
2021/01/31 07:49:54;;;;;;;13.65;9.30;;;3.10;81.80;;;3.51;69.05;96066.56;4947539;29;20065;-35
2021/01/31 07:52:25;;;;;;;14.05;8.70;;;3.10;82.00;;;3.52;68.87;96070.00;4963476;29;20055;-35
2021/01/31 07:55:27;;;;;;;14.03;8.90;;;3.20;81.80;;;3.48;68.93;96085.28;4963492;29;20053;-35
2021/01/31 07:58:10;;;;;;;13.80;8.70;;;3.20;81.20;;;3.50;68.49;96077.22;4963878;29;20050;-36
2021/01/31 08:00:43;;;;;;;15.17;9.37;;;3.20;81.50;;;3.47;68.94;96082.78;4945185;29;20057;-36
2021/01/31 08:03:33;;;;;;;16.60;9.57;;;3.20;81.20;;;3.48;69.22;96085.28;4962487;29;20055;-36
2021/01/31 08:06:09;;;;;;;17.57;10.90;;;3.30;80.80;;;3.53;69.03;96083.00;4957493;28;20050;-36
2021/01/31 08:08:51;;;;;;;18.60;11.07;;;3.30;81.20;;;3.53;69.14;96088.28;4958709;29;20051;-36
2021/01/31 08:11:18;;;;;;;14.73;9.50;;;3.20;81.30;;;3.49;69.03;96081.69;4962027;29;20260;-36
2021/01/31 08:13:53;;;;;;;15.67;9.60;;;3.30;81.40;;;3.53;68.98;96075.13;4962825;29;20047;-40
2021/01/31 08:16:43;;;;;;;16.27;8.50;;;3.30;81.30;;;3.58;69.06;96074.66;4962717;29;20054;-39
2021/01/31 08:19:31;;;;;;;16.10;9.00;;;3.30;81.20;;;3.59;68.54;96083.34;4960885;29;20046;-40
2021/01/31 08:22:04;;;;;;;15.03;9.60;;;3.20;81.30;;;3.59;69.09;96078.94;4962963;29;20055;-39
2021/01/31 08:25:06;;;;;;;15.48;9.55;;;3.30;81.50;;;3.62;69.03;96083.06;4946012;29;20057;-39
2021/01/31 08:27:42;;;;;;;15.37;10.07;;;3.30;81.20;;;3.65;69.06;96085.38;4962934;29;20061;-40
2021/01/31 08:30:42;;;;;;;18.00;11.00;;;3.30;81.70;;;3.67;68.97;96078.16;4963095;29;20236;-40
2021/01/31 08:33:41;;;;;;;13.40;9.47;;;3.30;81.70;;;3.70;68.89;96083.94;4947340;29;20057;-39
2021/01/31 08:36:20;;;;;;;15.00;9.40;;;3.30;81.70;;;3.72;68.93;96094.28;4960379;29;20280;-39
2021/01/31 08:38:53;;;;;;;14.13;9.77;;;3.30;81.80;;;3.72;68.89;96096.91;4963222;29;20055;-39
2021/01/31 08:41:30;;;;;;;16.63;10.03;;;3.40;81.90;;;3.73;68.97;96099.41;4963451;28;20051;-39
2021/01/31 08:44:20;;;;;;;14.13;8.50;;;3.40;81.70;;;3.77;69.11;96091.22;4962776;29;20077;-39
2021/01/31 08:47:00;;;;;;;14.00;9.27;;;3.40;81.80;;;3.78;69.14;96098.94;4955086;29;20073;-40
2021/01/31 08:49:28;;;;;;;17.10;10.83;;;3.40;81.80;;;3.78;69.11;96098.09;4957390;29;20379;-40
2021/01/31 08:52:06;;;;;;;19.30;11.20;;;3.40;81.70;;;3.81;68.94;96103.06;4955328;29;20063;-40
2021/01/31 08:54:34;;;;;;;14.57;9.37;;;3.40;81.70;;;3.80;68.98;96097.00;4960883;29;20069;-40
2021/01/31 08:57:05;;;;;;;13.83;8.63;;;3.40;81.60;;;3.83;68.82;96104.56;4961850;29;20058;-40
2021/01/31 08:59:48;;;;;;;16.40;9.73;;;3.50;81.80;;;3.80;69.16;96110.16;4946317;29;20047;-40
2021/01/31 09:02:19;;;;;;;13.90;8.83;;;3.50;81.50;;;3.82;69.03;96105.56;4961243;29;20049;-39
2021/01/31 09:04:50;;;;;;;14.73;9.27;;;3.60;81.60;;;3.85;68.79;96114.94;4962308;29;20051;-39
2021/01/31 09:07:33;;;;;;;16.13;9.40;;;3.60;81.50;;;3.89;69.15;96111.81;4962583;29;20367;-39
2021/01/31 09:10:16;;;;;;;14.53;9.30;;;3.60;81.40;;;3.94;68.60;96106.91;4962184;29;20066;-39
2021/01/31 09:12:44;;;;;;;17.93;11.23;;;3.70;81.70;;;3.96;69.29;96104.13;4946909;29;20349;-39
2021/01/31 09:15:24;;;;;;;15.07;9.97;;;3.70;81.70;;;4.01;69.23;96101.84;4962136;29;20390;-39
2021/01/31 09:18:04;;;;;;;15.93;9.57;;;3.70;81.60;;;4.03;68.91;96096.41;4962635;29;20051;-39
2021/01/31 09:20:31;;;;;;;14.37;8.97;;;3.70;81.60;;;4.05;68.83;96108.47;4961979;29;20039;-39
2021/01/31 09:23:07;;;;;;;14.13;9.23;;;3.70;81.60;;;4.08;69.03;96108.13;4961798;29;20374;-39
2021/01/31 09:25:39;;;;;;;15.97;9.57;;;3.70;81.50;;;4.10;69.17;96116.69;4962499;29;20276;-39
2021/01/31 09:28:19;;;;;;;13.10;9.20;;;3.70;81.70;;;4.09;68.87;96112.44;4945615;29;20055;-38
2021/01/31 09:30:49;;;;;;;14.10;9.80;;;3.80;81.60;;;4.12;69.11;96120.00;4957874;29;20063;-38
2021/01/31 09:33:40;;;;;;;15.43;10.60;;;3.80;81.60;;;4.13;69.25;96115.56;4961354;29;20348;-39
2021/01/31 09:36:24;;;;;;;17.80;9.97;;;3.80;81.60;;;4.15;68.91;96116.25;4961007;28;20055;-38
2021/01/31 09:38:54;;;;;;;20.08;10.75;;;3.80;81.60;;;4.15;69.06;96113.59;4961432;29;20043;-38
2021/01/31 09:41:24;;;;;;;17.23;11.23;;;3.80;81.80;;;4.17;69.18;96124.81;4959612;29;20043;-39
2021/01/31 09:43:59;;;;;;;20.45;12.93;;;3.80;81.90;;;4.17;68.82;96129.22;4945200;29;20348;-38
2021/01/31 09:46:27;;;;;;;18.43;11.83;;;3.80;81.70;;;4.16;69.08;96132.84;4960115;29;20058;-38
2021/01/31 09:49:24;;;;;;;14.00;10.60;;;3.80;81.90;;;4.21;68.76;96131.41;4960668;29;20234;-39
2021/01/31 09:51:52;;;;;;;14.47;10.33;;;3.90;81.50;;;4.21;69.02;96131.41;4940250;29;20062;-39
2021/01/31 09:54:31;;;;;;;13.40;9.33;;;3.90;81.60;;;4.26;68.93;96120.38;4945317;29;20240;-39
2021/01/31 09:57:03;;;;;;;13.10;9.10;;;3.90;81.50;;;4.28;69.04;96124.50;4964467;29;20065;-39
2021/01/31 09:59:36;;;;;;;12.63;9.23;;;4.00;81.40;;;4.32;69.10;96122.38;4963578;29;20043;-39
2021/01/31 10:02:22;;;;;;;17.47;10.83;;;4.00;81.80;;;4.33;68.45;96114.31;4959613;29;20047;-39
2021/01/31 10:05:01;;;;;;;14.87;10.07;;;4.10;81.00;;;4.36;68.50;96107.06;4964869;29;20047;-39
2021/01/31 10:07:29;;;;;;;14.13;9.37;;;4.10;81.00;;;4.38;68.75;96118.28;4964013;29;20062;-39
2021/01/31 10:09:56;;;;;;;15.03;9.73;;;4.10;81.30;;;4.41;68.64;96112.69;4947233;29;20063;-39
2021/01/31 10:12:33;;;;;;;14.13;9.40;;;4.10;81.30;;;4.43;68.53;96106.28;4964269;29;20058;-38
2021/01/31 10:15:07;;;;;;;15.50;8.90;;;4.20;81.10;;;4.47;68.63;96104.97;4963791;29;20059;-39
2021/01/31 10:17:42;;;;;;;13.27;8.70;;;4.20;80.90;;;4.50;69.11;96103.84;4964958;29;20047;-39
2021/01/31 10:20:29;;;;;;;;;;;4.30;81.10;;;4.52;68.93;96093.97;4965203;29;20051;-39
2021/01/31 10:23:20;;;;;;;12.37;7.87;;;4.20;80.60;;;4.57;68.52;96091.66;4964437;29;19918;-39
2021/01/31 10:26:02;;;;;;;16.13;10.97;;;4.30;81.20;;;4.61;69.04;96102.69;4964815;29;20043;-39
2021/01/31 10:28:36;;;;;;;35.13;14.27;;;4.30;80.90;;;4.62;69.08;96099.91;4964771;29;20266;-39
2021/01/31 10:31:05;;;;;;;16.47;9.70;;;4.30;81.20;;;4.66;68.44;96109.13;4964137;29;20057;-37
2021/01/31 10:33:48;;;;;;;17.50;12.53;;;4.40;81.30;;;4.67;68.65;96113.44;4964301;29;20057;-37
2021/01/31 10:36:35;;;;;;;14.10;9.83;;;4.30;81.20;;;4.68;68.89;96115.06;4962512;29;20051;-37
2021/01/31 10:39:08;;;;;;;27.20;15.40;;;4.40;81.50;;;4.69;68.46;96116.72;4964800;28;20367;-38
2021/01/31 10:41:37;;;;;;;13.18;8.80;;;4.40;81.30;;;4.66;69.11;96105.69;4963044;29;20050;-37
2021/01/31 10:44:11;;;;;;;13.37;7.97;;;4.40;80.80;;;4.66;69.09;96116.22;4964442;29;20054;-38
2021/01/31 10:46:40;;;;;;;13.20;8.03;;;4.40;80.50;;;4.66;68.77;96109.13;4963560;29;20053;-38
2021/01/31 10:49:08;;;;;;;12.70;8.97;;;4.40;80.50;;;4.67;68.71;96102.88;4964021;29;20067;-38
2021/01/31 10:51:36;;;;;;;10.93;8.37;;;4.40;80.60;;;4.69;68.77;96102.69;4962848;29;20063;-38
2021/01/31 10:54:05;;;;;;;12.67;8.73;;;4.40;80.80;;;4.72;68.65;96097.13;4964800;29;20051;-39
2021/01/31 10:56:32;;;;;;;18.27;10.27;;;4.40;80.70;;;4.75;68.90;96099.44;4963917;29;20047;-38
2021/01/31 10:59:00;;;;;;;11.97;7.90;;;4.50;81.00;;;4.77;68.25;96094.84;4962541;29;20069;-38
2021/01/31 11:01:29;;;;;;;10.13;7.63;;;4.50;80.70;;;4.79;68.54;96092.84;4962349;29;20047;-38
2021/01/31 11:03:57;;;;;;;11.63;7.70;;;4.60;80.80;;;4.84;68.54;96092.34;4963999;29;20053;-38
2021/01/31 11:06:27;;;;;;;10.97;8.17;;;4.60;80.40;;;4.87;69.04;96086.75;4963046;28;20058;-38
2021/01/31 11:08:55;;;;;;;11.20;7.93;;;4.70;80.30;;;4.89;68.42;96082.16;4964287;29;20043;-39